sensor_id;sensor_type;location;lat;lon;timestamp;pressure;altitude;pressure_sealevel;temperature;humidity
48964;BME280;34776;48.180;16.420;2023-01-29T00:01:04;100873.91;;;1.39;79.47
48964;BME280;34776;48.180;16.420;2023-01-29T00:03:30;100864.31;;;1.46;79.53
48964;BME280;34776;48.180;16.420;2023-01-29T00:05:56;100870.44;;;1.50;79.37
48964;BME280;34776;48.180;16.420;2023-01-29T00:08:21;100872.19;;;1.51;79.36
48964;BME280;34776;48.180;16.420;2023-01-29T00:10:47;100874.81;;;1.51;79.62
48964;BME280;34776;48.180;16.420;2023-01-29T00:13:12;100873.94;;;1.52;78.88
48964;BME280;34776;48.180;16.420;2023-01-29T00:15:38;100877.41;;;1.51;78.53
48964;BME280;34776;48.180;16.420;2023-01-29T00:18:03;100884.41;;;1.47;78.63
48964;BME280;34776;48.180;16.420;2023-01-29T00:20:29;100889.63;;;1.46;78.32
48964;BME280;34776;48.180;16.420;2023-01-29T00:22:55;100884.38;;;1.44;78.34
48964;BME280;34776;48.180;16.420;2023-01-29T00:25:20;100894.88;;;1.46;78.26
48964;BME280;34776;48.180;16.420;2023-01-29T00:27:45;100893.13;;;1.45;78.24
48964;BME280;34776;48.180;16.420;2023-01-29T00:30:11;100894.84;;;1.39;77.95
48964;BME280;34776;48.180;16.420;2023-01-29T00:32:38;100886.09;;;1.34;77.96
48964;BME280;34776;48.180;16.420;2023-01-29T00:35:04;100891.34;;;1.31;77.62
48964;BME280;34776;48.180;16.420;2023-01-29T00:37:30;100895.69;;;1.32;77.69
48964;BME280;34776;48.180;16.420;2023-01-29T00:39:56;100896.56;;;1.28;77.58
48964;BME280;34776;48.180;16.420;2023-01-29T00:42:21;100886.06;;;1.25;77.49
48964;BME280;34776;48.180;16.420;2023-01-29T00:45:05;100893.91;;;1.25;77.32
48964;BME280;34776;48.180;16.420;2023-01-29T00:47:31;100892.19;;;1.27;77.39
48964;BME280;34776;48.180;16.420;2023-01-29T00:50:05;100891.34;;;1.28;77.15
48964;BME280;34776;48.180;16.420;2023-01-29T00:52:30;100899.19;;;1.28;77.29
48964;BME280;34776;48.180;16.420;2023-01-29T00:54:58;100894.81;;;1.27;77.22
48964;BME280;34776;48.180;16.420;2023-01-29T00:57:25;100911.38;;;1.25;76.89
48964;BME280;34776;48.180;16.420;2023-01-29T00:59:51;100896.53;;;1.22;76.88
48964;BME280;34776;48.180;16.420;2023-01-29T01:02:17;100898.31;;;1.26;77.34
48964;BME280;34776;48.180;16.420;2023-01-29T01:05:02;100899.16;;;1.22;76.68
48964;BME280;34776;48.180;16.420;2023-01-29T01:07:30;100896.50;;;1.19;76.58
48964;BME280;34776;48.180;16.420;2023-01-29T01:09:56;100906.97;;;1.17;76.69
48964;BME280;34776;48.180;16.420;2023-01-29T01:12:40;100913.94;;;1.17;76.31
48964;BME280;34776;48.180;16.420;2023-01-29T01:15:06;100904.34;;;1.13;76.26
48964;BME280;34776;48.180;16.420;2023-01-29T01:17:31;100901.69;;;1.07;76.11
48964;BME280;34776;48.180;16.420;2023-01-29T01:19:57;100906.91;;;1.04;76.16
48964;BME280;34776;48.180;16.420;2023-01-29T01:22:22;100895.63;;;1.09;76.44
48964;BME280;34776;48.180;16.420;2023-01-29T01:24:47;100883.38;;;1.08;76.30
48964;BME280;34776;48.180;16.420;2023-01-29T01:27:13;100879.91;;;1.12;76.31
48964;BME280;34776;48.180;16.420;2023-01-29T01:29:38;100879.03;;;1.15;76.38
48964;BME280;34776;48.180;16.420;2023-01-29T01:32:04;100886.91;;;1.16;76.30
48964;BME280;34776;48.180;16.420;2023-01-29T01:34:30;100879.91;;;1.12;76.08
48964;BME280;34776;48.180;16.420;2023-01-29T01:36:55;100885.16;;;1.12;76.42
48964;BME280;34776;48.180;16.420;2023-01-29T01:39:21;100891.25;;;1.10;76.28
48964;BME280;34776;48.180;16.420;2023-01-29T01:41:46;100881.63;;;1.09;76.29
48964;BME280;34776;48.180;16.420;2023-01-29T01:47:16;100886.00;;;1.08;75.99
48964;BME280;34776;48.180;16.420;2023-01-29T01:49:44;100889.50;;;1.12;75.99
48964;BME280;34776;48.180;16.420;2023-01-29T01:52:12;100895.66;;;1.18;76.22
48964;BME280;34776;48.180;16.420;2023-01-29T01:54:39;100892.09;;;1.09;75.54
48964;BME280;34776;48.180;16.420;2023-01-29T01:57:17;100891.25;;;1.10;76.17
48964;BME280;34776;48.180;16.420;2023-01-29T01:59:52;100899.13;;;1.16;76.06
48964;BME280;34776;48.180;16.420;2023-01-29T02:02:18;100894.75;;;1.15;75.94
48964;BME280;34776;48.180;16.420;2023-01-29T02:05:03;100893.84;;;1.07;75.73
48964;BME280;34776;48.180;16.420;2023-01-29T02:07:48;100908.69;;;1.08;75.83
48964;BME280;34776;48.180;16.420;2023-01-29T02:10:41;100910.38;;;1.02;75.60
48964;BME280;34776;48.180;16.420;2023-01-29T02:13:07;100910.38;;;1.02;75.75
48964;BME280;34776;48.180;16.420;2023-01-29T02:15:33;100911.22;;;0.98;75.64
48964;BME280;34776;48.180;16.420;2023-01-29T02:17:58;100912.09;;;0.91;75.73
48964;BME280;34776;48.180;16.420;2023-01-29T02:20:28;100913.81;;;0.92;75.99
48964;BME280;34776;48.180;16.420;2023-01-29T02:28:48;100918.25;;;1.02;75.79
48964;BME280;34776;48.180;16.420;2023-01-29T02:31:28;100917.38;;;0.99;75.56
48964;BME280;34776;48.180;16.420;2023-01-29T02:36:59;100916.47;;;0.97;75.23
48964;BME280;34776;48.180;16.420;2023-01-29T02:42:26;100918.22;;;0.98;75.13
48964;BME280;34776;48.180;16.420;2023-01-29T02:44:59;100923.44;;;0.95;75.31
48964;BME280;34776;48.180;16.420;2023-01-29T02:53:16;100926.00;;;0.84;74.82
48964;BME280;34776;48.180;16.420;2023-01-29T02:58:40;100927.66;;;0.73;74.78
48964;BME280;34776;48.180;16.420;2023-01-29T03:01:17;100938.16;;;0.76;74.78
48964;BME280;34776;48.180;16.420;2023-01-29T03:03:49;100938.16;;;0.76;74.48
48964;BME280;34776;48.180;16.420;2023-01-29T03:06:20;100936.38;;;0.73;74.54
48964;BME280;34776;48.180;16.420;2023-01-29T03:09:00;100931.09;;;0.67;74.05
48964;BME280;34776;48.180;16.420;2023-01-29T03:11:33;100931.06;;;0.63;74.20
48964;BME280;34776;48.180;16.420;2023-01-29T03:14:12;100938.03;;;0.60;73.93
48964;BME280;34776;48.180;16.420;2023-01-29T03:16:46;100945.03;;;0.65;73.97
48964;BME280;34776;48.180;16.420;2023-01-29T03:21:46;100939.81;;;0.65;73.87
48964;BME280;34776;48.180;16.420;2023-01-29T03:24:19;100945.94;;;0.65;73.65
48964;BME280;34776;48.180;16.420;2023-01-29T03:27:07;100947.63;;;0.60;73.09
48964;BME280;34776;48.180;16.420;2023-01-29T03:29:53;100945.81;;;0.54;72.62
48964;BME280;34776;48.180;16.420;2023-01-29T03:32:39;100948.47;;;0.57;73.30
48964;BME280;34776;48.180;16.420;2023-01-29T03:35:07;100945.00;;;0.58;73.15
48964;BME280;34776;48.180;16.420;2023-01-29T03:37:40;100946.72;;;0.58;72.95
48964;BME280;34776;48.180;16.420;2023-01-29T03:40:08;100937.97;;;0.51;72.97
48964;BME280;34776;48.180;16.420;2023-01-29T03:48:05;100938.88;;;0.56;72.85
48964;BME280;34776;48.180;16.420;2023-01-29T03:51:06;100932.78;;;0.60;72.64
48964;BME280;34776;48.180;16.420;2023-01-29T03:56:38;100920.50;;;0.50;72.12
48964;BME280;34776;48.180;16.420;2023-01-29T03:59:24;100916.19;;;0.51;71.94
48964;BME280;34776;48.180;16.420;2023-01-29T04:01:59;100919.63;;;0.48;72.09
48964;BME280;34776;48.180;16.420;2023-01-29T04:04:37;100911.78;;;0.45;71.91
48964;BME280;34776;48.180;16.420;2023-01-29T04:07:15;100908.28;;;0.43;72.05
48964;BME280;34776;48.180;16.420;2023-01-29T04:09:45;100908.28;;;0.43;72.07
48964;BME280;34776;48.180;16.420;2023-01-29T04:12:15;100904.78;;;0.44;72.03
48964;BME280;34776;48.180;16.420;2023-01-29T04:14:42;100901.31;;;0.45;71.73
48964;BME280;34776;48.180;16.420;2023-01-29T04:17:19;100903.03;;;0.46;71.92
48964;BME280;34776;48.180;16.420;2023-01-29T04:19:46;100897.81;;;0.46;71.61
48964;BME280;34776;48.180;16.420;2023-01-29T04:22:16;100897.78;;;0.38;71.38
48964;BME280;34776;48.180;16.420;2023-01-29T04:24:43;100903.88;;;0.39;71.88
48964;BME280;34776;48.180;16.420;2023-01-29T04:41:23;100906.53;;;0.42;71.72
48964;BME280;34776;48.180;16.420;2023-01-29T04:44:09;100909.16;;;0.42;71.44
48964;BME280;34776;48.180;16.420;2023-01-29T04:52:56;100922.25;;;0.47;71.71
48964;BME280;34776;48.180;16.420;2023-01-29T04:58:08;100929.19;;;0.43;71.31
48964;BME280;34776;48.180;16.420;2023-01-29T05:00:43;100931.78;;;0.42;71.72
48964;BME280;34776;48.180;16.420;2023-01-29T05:03:14;100935.25;;;0.36;71.48
48964;BME280;34776;48.180;16.420;2023-01-29T05:05:42;100931.75;;;0.34;71.45
48964;BME280;34776;48.180;16.420;2023-01-29T05:08:11;100932.63;;;0.36;71.44
48964;BME280;34776;48.180;16.420;2023-01-29T05:10:38;100936.09;;;0.35;71.24
48964;BME280;34776;48.180;16.420;2023-01-29T05:13:05;100932.56;;;0.31;71.11
48964;BME280;34776;48.180;16.420;2023-01-29T05:15:38;100934.31;;;0.28;70.80
48964;BME280;34776;48.180;16.420;2023-01-29T05:18:04;100937.78;;;0.31;70.45
48964;BME280;34776;48.180;16.420;2023-01-29T05:20:34;100927.28;;;0.24;69.31
48964;BME280;34776;48.180;16.420;2023-01-29T05:23:01;100932.47;;;0.20;69.45
48964;BME280;34776;48.180;16.420;2023-01-29T05:25:29;100925.53;;;0.21;69.62
48964;BME280;34776;48.180;16.420;2023-01-29T05:27:55;100925.50;;;0.19;68.88
48964;BME280;34776;48.180;16.420;2023-01-29T05:30:38;100920.19;;;0.10;68.94
48964;BME280;34776;48.180;16.420;2023-01-29T05:33:11;100914.94;;;0.07;68.89
48964;BME280;34776;48.180;16.420;2023-01-29T05:35:37;100909.69;;;0.06;68.74
48964;BME280;34776;48.180;16.420;2023-01-29T05:38:02;100921.00;;;0.03;68.96
48964;BME280;34776;48.180;16.420;2023-01-29T05:40:27;100917.50;;;0.04;68.73
48964;BME280;34776;48.180;16.420;2023-01-29T05:42:53;100921.84;;;-0.01;68.74
48964;BME280;34776;48.180;16.420;2023-01-29T05:45:19;100918.34;;;-0.02;69.05
48964;BME280;34776;48.180;16.420;2023-01-29T05:47:45;100920.06;;;-0.05;68.92
48964;BME280;34776;48.180;16.420;2023-01-29T05:50:11;100920.91;;;-0.06;68.64
48964;BME280;34776;48.180;16.420;2023-01-29T05:52:36;100916.59;;;-0.04;69.01
48964;BME280;34776;48.180;16.420;2023-01-29T05:55:02;100920.06;;;-0.05;68.87
48964;BME280;34776;48.180;16.420;2023-01-29T05:57:27;100913.94;;;-0.07;68.79
48964;BME280;34776;48.180;16.420;2023-01-29T05:59:53;100923.53;;;-0.06;68.87
48964;BME280;34776;48.180;16.420;2023-01-29T06:02:18;100916.59;;;-0.04;68.78
48964;BME280;34776;48.180;16.420;2023-01-29T06:04:45;100918.34;;;-0.02;69.04
48964;BME280;34776;48.180;16.420;2023-01-29T06:07:10;100910.53;;;0.00;68.89
48964;BME280;34776;48.180;16.420;2023-01-29T06:09:35;100910.47;;;-0.05;68.61
48964;BME280;34776;48.180;16.420;2023-01-29T06:12:01;100913.97;;;-0.03;68.74
48964;BME280;34776;48.180;16.420;2023-01-29T06:14:26;100906.97;;;-0.05;68.40
48964;BME280;34776;48.180;16.420;2023-01-29T06:16:51;100912.16;;;-0.10;68.42
48964;BME280;34776;48.180;16.420;2023-01-29T06:19:17;100913.94;;;-0.07;68.49
48964;BME280;34776;48.180;16.420;2023-01-29T06:21:42;100910.41;;;-0.12;68.28
48964;BME280;34776;48.180;16.420;2023-01-29T06:24:08;100911.25;;;-0.13;68.40
48964;BME280;34776;48.180;16.420;2023-01-29T06:26:33;100917.28;;;-0.19;68.24
48964;BME280;34776;48.180;16.420;2023-01-29T06:28:58;100921.56;;;-0.26;67.99
48964;BME280;34776;48.180;16.420;2023-01-29T06:31:24;100928.50;;;-0.28;67.91
48964;BME280;34776;48.180;16.420;2023-01-29T06:33:49;100918.06;;;-0.28;67.88
48964;BME280;34776;48.180;16.420;2023-01-29T06:36:14;100919.81;;;-0.28;67.98
48964;BME280;34776;48.180;16.420;2023-01-29T06:38:40;100923.28;;;-0.28;67.68
48964;BME280;34776;48.180;16.420;2023-01-29T06:41:13;100927.56;;;-0.34;67.41
48964;BME280;34776;48.180;16.420;2023-01-29T06:43:43;100938.88;;;-0.34;67.44
48964;BME280;34776;48.180;16.420;2023-01-29T06:46:09;100930.16;;;-0.36;67.31
48964;BME280;34776;48.180;16.420;2023-01-29T06:48:34;100933.69;;;-0.35;67.53
48964;BME280;34776;48.180;16.420;2023-01-29T06:51:05;100930.22;;;-0.33;67.37
48964;BME280;34776;48.180;16.420;2023-01-29T06:53:32;100935.44;;;-0.33;67.07
48964;BME280;34776;48.180;16.420;2023-01-29T06:55:57;100931.94;;;-0.35;66.98
48964;BME280;34776;48.180;16.420;2023-01-29T06:58:23;100931.94;;;-0.35;66.87
48964;BME280;34776;48.180;16.420;2023-01-29T07:00:48;100917.97;;;-0.37;66.97
48964;BME280;34776;48.180;16.420;2023-01-29T07:03:14;100930.09;;;-0.42;66.98
48964;BME280;34776;48.180;16.420;2023-01-29T07:05:39;100930.13;;;-0.41;66.82
48964;BME280;34776;48.180;16.420;2023-01-29T07:08:05;100928.44;;;-0.37;66.84
48964;BME280;34776;48.180;16.420;2023-01-29T07:10:30;100925.78;;;-0.38;66.57
48964;BME280;34776;48.180;16.420;2023-01-29T07:12:57;100916.28;;;-0.32;66.82
48964;BME280;34776;48.180;16.420;2023-01-29T07:15:23;100923.34;;;-0.25;66.86
48964;BME280;34776;48.180;16.420;2023-01-29T07:17:58;100915.50;;;-0.25;66.27
48964;BME280;34776;48.180;16.420;2023-01-29T07:20:26;100922.50;;;-0.19;66.68
48964;BME280;34776;48.180;16.420;2023-01-29T07:22:52;100930.41;;;-0.14;66.36
48964;BME280;34776;48.180;16.420;2023-01-29T07:25:17;100930.47;;;-0.08;66.14
48964;BME280;34776;48.180;16.420;2023-01-29T07:27:43;100928.84;;;0.03;65.96
48964;BME280;34776;48.180;16.420;2023-01-29T07:30:09;100924.50;;;0.05;65.88
48964;BME280;34776;48.180;16.420;2023-01-29T07:32:34;100931.44;;;0.02;65.67
48964;BME280;34776;48.180;16.420;2023-01-29T07:34:59;100926.25;;;0.06;65.49
48964;BME280;34776;48.180;16.420;2023-01-29T07:37:25;100930.69;;;0.16;65.89
48964;BME280;34776;48.180;16.420;2023-01-29T07:39:50;100931.69;;;0.29;65.43
48964;BME280;34776;48.180;16.420;2023-01-29T07:42:16;100926.56;;;0.40;65.15
48964;BME280;34776;48.180;16.420;2023-01-29T07:44:41;100923.16;;;0.52;64.58
48964;BME280;34776;48.180;16.420;2023-01-29T07:47:06;100924.06;;;0.58;64.04
48964;BME280;34776;48.180;16.420;2023-01-29T07:49:32;100925.88;;;0.66;64.49
48964;BME280;34776;48.180;16.420;2023-01-29T07:51:57;100918.97;;;0.74;63.61
48964;BME280;34776;48.180;16.420;2023-01-29T07:54:22;100932.03;;;0.74;63.60
48964;BME280;34776;48.180;16.420;2023-01-29T07:56:48;100933.72;;;0.69;63.41
48964;BME280;34776;48.180;16.420;2023-01-29T07:59:13;100931.03;;;0.58;63.16
48964;BME280;34776;48.180;16.420;2023-01-29T08:01:39;100930.22;;;0.67;63.53
48964;BME280;34776;48.180;16.420;2023-01-29T08:04:04;100942.56;;;0.80;63.32
48964;BME280;34776;48.180;16.420;2023-01-29T08:06:29;100939.94;;;0.83;62.92
48964;BME280;34776;48.180;16.420;2023-01-29T08:08:55;100938.13;;;0.73;62.50
48964;BME280;34776;48.180;16.420;2023-01-29T08:11:21;100950.28;;;0.63;62.86
48964;BME280;34776;48.180;16.420;2023-01-29T08:13:47;100954.69;;;0.73;63.02
48964;BME280;34776;48.180;16.420;2023-01-29T08:16:12;100948.63;;;0.79;62.61
48964;BME280;34776;48.180;16.420;2023-01-29T08:18:37;100960.00;;;0.83;62.77
48964;BME280;34776;48.180;16.420;2023-01-29T08:21:03;100944.22;;;0.73;62.14
48964;BME280;34776;48.180;16.420;2023-01-29T08:23:29;100946.81;;;0.69;62.25
48964;BME280;34776;48.180;16.420;2023-01-29T08:25:54;100943.34;;;0.70;62.27
48964;BME280;34776;48.180;16.420;2023-01-29T08:28:19;100945.19;;;0.85;62.61
48964;BME280;34776;48.180;16.420;2023-01-29T08:30:45;100945.16;;;0.83;61.87
48964;BME280;34776;48.180;16.420;2023-01-29T08:33:10;100949.56;;;0.90;61.91
48964;BME280;34776;48.180;16.420;2023-01-29T08:35:36;100950.50;;;0.95;62.25
48964;BME280;34776;48.180;16.420;2023-01-29T08:38:03;100960.94;;;0.91;61.73
48964;BME280;34776;48.180;16.420;2023-01-29T08:40:31;100968.75;;;0.89;61.73
48964;BME280;34776;48.180;16.420;2023-01-29T08:42:57;100969.59;;;0.85;61.89
48964;BME280;34776;48.180;16.420;2023-01-29T08:45:23;100969.59;;;0.82;61.91
48964;BME280;34776;48.180;16.420;2023-01-29T08:47:48;100974.88;;;0.91;62.02
48964;BME280;34776;48.180;16.420;2023-01-29T08:50:15;100974.09;;;1.03;61.99
48964;BME280;34776;48.180;16.420;2023-01-29T08:52:41;100972.34;;;1.07;61.51
48964;BME280;34776;48.180;16.420;2023-01-29T08:55:07;100976.66;;;0.95;61.33
48964;BME280;34776;48.180;16.420;2023-01-29T08:57:33;100976.63;;;0.92;61.37
48964;BME280;34776;48.180;16.420;2023-01-29T08:59:58;100978.34;;;0.90;61.90
48964;BME280;34776;48.180;16.420;2023-01-29T09:02:24;100985.34;;;0.94;61.71
48964;BME280;34776;48.180;16.420;2023-01-29T09:04:49;100980.16;;;0.97;61.77
48964;BME280;34776;48.180;16.420;2023-01-29T09:07:15;100983.69;;;1.01;61.20
48964;BME280;34776;48.180;16.420;2023-01-29T09:09:40;100980.28;;;1.19;61.58
48964;BME280;34776;48.180;16.420;2023-01-29T09:12:05;100987.34;;;1.32;61.07
48964;BME280;34776;48.180;16.420;2023-01-29T09:14:31;100983.00;;;1.33;60.79
48964;BME280;34776;48.180;16.420;2023-01-29T09:16:57;100981.25;;;1.36;60.87
48964;BME280;34776;48.180;16.420;2023-01-29T09:19:22;100972.56;;;1.39;60.23
48964;BME280;34776;48.180;16.420;2023-01-29T09:21:48;100967.31;;;1.39;60.08
48964;BME280;34776;48.180;16.420;2023-01-29T09:24:14;100977.84;;;1.51;60.11
48964;BME280;34776;48.180;16.420;2023-01-29T09:26:39;100977.84;;;1.59;59.97
48964;BME280;34776;48.180;16.420;2023-01-29T09:29:05;100984.88;;;1.65;59.90
48964;BME280;34776;48.180;16.420;2023-01-29T09:31:30;100970.06;;;1.68;59.77
48964;BME280;34776;48.180;16.420;2023-01-29T09:33:56;100975.31;;;1.77;59.58
48964;BME280;34776;48.180;16.420;2023-01-29T09:36:21;100975.34;;;1.87;59.43
48964;BME280;34776;48.180;16.420;2023-01-29T09:38:46;100978.88;;;2.01;59.63
48964;BME280;34776;48.180;16.420;2023-01-29T09:43:53;100977.16;;;2.31;58.75
48964;BME280;34776;48.180;16.420;2023-01-29T09:46:34;100966.69;;;2.71;57.98
48964;BME280;34776;48.180;16.420;2023-01-29T09:49:13;100974.56;;;2.86;58.35
48964;BME280;34776;48.180;16.420;2023-01-29T09:51:40;100974.56;;;2.92;58.14
48964;BME280;34776;48.180;16.420;2023-01-29T09:54:20;100976.31;;;2.84;57.54
48964;BME280;34776;48.180;16.420;2023-01-29T09:56:49;100979.81;;;2.77;57.47
48964;BME280;34776;48.180;16.420;2023-01-29T09:59:17;100980.69;;;2.63;57.53
48964;BME280;34776;48.180;16.420;2023-01-29T10:04:46;100975.44;;;2.36;58.04
48964;BME280;34776;48.180;16.420;2023-01-29T10:10:16;100972.84;;;2.42;57.06
48964;BME280;34776;48.180;16.420;2023-01-29T10:13:11;100971.94;;;2.60;57.59
48964;BME280;34776;48.180;16.420;2023-01-29T10:18:33;100980.69;;;3.00;57.70
48964;BME280;34776;48.180;16.420;2023-01-29T10:24:30;100971.00;;;3.18;55.14
48964;BME280;34776;48.180;16.420;2023-01-29T10:26:59;100963.94;;;3.43;57.09
48964;BME280;34776;48.180;16.420;2023-01-29T10:29:27;100955.16;;;3.49;55.97
48964;BME280;34776;48.180;16.420;2023-01-29T10:31:57;100950.81;;;3.35;56.22
48964;BME280;34776;48.180;16.420;2023-01-29T10:34:40;100947.34;;;3.27;56.25
48964;BME280;34776;48.180;16.420;2023-01-29T10:37:27;100928.81;;;3.56;54.78
48964;BME280;34776;48.180;16.420;2023-01-29T10:39:56;100926.75;;;4.14;56.44
48964;BME280;34776;48.180;16.420;2023-01-29T10:42:36;100927.38;;;4.45;54.40
48964;BME280;34776;48.180;16.420;2023-01-29T10:46:24;100922.91;;;4.55;51.59
48964;BME280;34776;48.180;16.420;2023-01-29T10:52:20;100921.19;;;4.54;52.34
48964;BME280;34776;48.180;16.420;2023-01-29T10:54:47;100917.31;;;4.92;54.33
48964;BME280;34776;48.180;16.420;2023-01-29T11:00:32;100916.28;;;5.06;53.04
48964;BME280;34776;48.180;16.420;2023-01-29T11:03:11;100925.09;;;5.01;52.30
48964;BME280;34776;48.180;16.420;2023-01-29T11:05:53;100925.38;;;4.75;50.86
48964;BME280;34776;48.180;16.420;2023-01-29T11:08:23;100919.47;;;4.45;53.03
48964;BME280;34776;48.180;16.420;2023-01-29T11:11:49;100906.44;;;4.33;53.11
48964;BME280;34776;48.180;16.420;2023-01-29T11:13:54;100914.25;;;4.39;53.67
48964;BME280;34776;48.180;16.420;2023-01-29T11:16:22;100911.84;;;4.11;53.40
48964;BME280;34776;48.180;16.420;2023-01-29T11:18:54;100905.06;;;3.82;53.48
48964;BME280;34776;48.180;16.420;2023-01-29T11:21:20;100894.63;;;3.62;54.31
48964;BME280;34776;48.180;16.420;2023-01-29T11:23:47;100889.41;;;3.55;54.57
48964;BME280;34776;48.180;16.420;2023-01-29T11:26:17;100883.31;;;3.51;54.57
48964;BME280;34776;48.180;16.420;2023-01-29T11:28:46;100875.44;;;3.51;54.48
48964;BME280;34776;48.180;16.420;2023-01-29T11:31:24;100865.75;;;3.59;54.46
48964;BME280;34776;48.180;16.420;2023-01-29T11:34:02;100865.53;;;3.93;53.85
48964;BME280;34776;48.180;16.420;2023-01-29T11:36:36;100862.78;;;4.07;54.50
48964;BME280;34776;48.180;16.420;2023-01-29T11:39:23;100853.16;;;4.06;53.14
48964;BME280;34776;48.180;16.420;2023-01-29T11:41:54;100845.13;;;4.24;54.11
48964;BME280;34776;48.180;16.420;2023-01-29T11:44:33;100838.78;;;4.45;52.93
48964;BME280;34776;48.180;16.420;2023-01-29T11:47:19;100824.59;;;4.60;51.94
48964;BME280;34776;48.180;16.420;2023-01-29T11:49:48;100824.41;;;4.79;53.52
48964;BME280;34776;48.180;16.420;2023-01-29T11:52:16;100819.22;;;4.71;53.21
48964;BME280;34776;48.180;16.420;2023-01-29T11:54:51;100815.00;;;4.58;52.79
48964;BME280;34776;48.180;16.420;2023-01-29T11:57:37;100810.81;;;4.35;51.48
48964;BME280;34776;48.180;16.420;2023-01-29T12:02:44;100790.63;;;4.36;53.57
48964;BME280;34776;48.180;16.420;2023-01-29T12:05:22;100789.03;;;4.22;53.46
48964;BME280;34776;48.180;16.420;2023-01-29T12:07:50;100779.31;;;4.27;54.17
48964;BME280;34776;48.180;16.420;2023-01-29T12:10:39;100778.56;;;4.16;53.20
48964;BME280;34776;48.180;16.420;2023-01-29T12:15:30;100760.38;;;3.92;53.90
48964;BME280;34776;48.180;16.420;2023-01-29T12:20:33;100766.34;;;4.09;54.02
48964;BME280;34776;48.180;16.420;2023-01-29T12:26:00;100756.72;;;4.05;52.44
48964;BME280;34776;48.180;16.420;2023-01-29T12:28:53;100755.84;;;4.06;52.95
48964;BME280;34776;48.180;16.420;2023-01-29T12:34:35;100750.72;;;3.92;52.33
48964;BME280;34776;48.180;16.420;2023-01-29T12:37:16;100749.00;;;3.90;53.96
48964;BME280;34776;48.180;16.420;2023-01-29T12:39:43;100740.09;;;4.04;52.21
48964;BME280;34776;48.180;16.420;2023-01-29T12:42:18;100736.47;;;4.16;53.83
48964;BME280;34776;48.180;16.420;2023-01-29T12:44:47;100733.66;;;4.33;54.22
48964;BME280;34776;48.180;16.420;2023-01-29T12:47:23;100737.91;;;4.45;53.78
48964;BME280;34776;48.180;16.420;2023-01-29T12:49:56;100729.13;;;4.46;53.29
48964;BME280;34776;48.180;16.420;2023-01-29T12:55:54;100726.50;;;4.46;53.02
48964;BME280;34776;48.180;16.420;2023-01-29T12:58:34;100721.81;;;4.68;52.92
48964;BME280;34776;48.180;16.420;2023-01-29T13:01:37;100714.91;;;4.62;51.76
48964;BME280;34776;48.180;16.420;2023-01-29T13:04:13;100713.28;;;4.49;52.40
48964;BME280;34776;48.180;16.420;2023-01-29T13:06:50;100715.38;;;4.22;52.79
48964;BME280;34776;48.180;16.420;2023-01-29T13:09:25;100699.78;;;4.01;52.82
48964;BME280;34776;48.180;16.420;2023-01-29T13:11:57;100706.91;;;3.93;53.83
48964;BME280;34776;48.180;16.420;2023-01-29T13:14:30;100701.72;;;3.86;54.00
48964;BME280;34776;48.180;16.420;2023-01-29T13:17:11;100697.38;;;3.82;51.88
48964;BME280;34776;48.180;16.420;2023-01-29T13:19:43;100698.34;;;3.69;54.28
48964;BME280;34776;48.180;16.420;2023-01-29T13:22:22;100695.84;;;3.54;53.82
48964;BME280;34776;48.180;16.420;2023-01-29T13:24:49;100698.63;;;3.38;54.76
48964;BME280;34776;48.180;16.420;2023-01-29T13:27:24;100706.47;;;3.40;54.57
48964;BME280;34776;48.180;16.420;2023-01-29T13:29:50;100695.84;;;3.54;54.71
48964;BME280;34776;48.180;16.420;2023-01-29T13:32:35;100699.38;;;3.51;54.16
48964;BME280;34776;48.180;16.420;2023-01-29T13:35:04;100698.53;;;3.48;54.99
48964;BME280;34776;48.180;16.420;2023-01-29T13:37:33;100696.81;;;3.42;54.95
48964;BME280;34776;48.180;16.420;2023-01-29T13:40:00;100695.19;;;3.27;55.18
48964;BME280;34776;48.180;16.420;2023-01-29T13:42:44;100689.16;;;3.13;54.92
48964;BME280;34776;48.180;16.420;2023-01-29T13:45:21;100689.16;;;3.13;55.11
48964;BME280;34776;48.180;16.420;2023-01-29T13:47:49;100686.63;;;2.97;55.72
48964;BME280;34776;48.180;16.420;2023-01-29T13:50:37;100685.75;;;2.98;55.35
48964;BME280;34776;48.180;16.420;2023-01-29T13:53:05;100690.16;;;2.93;55.68
48964;BME280;34776;48.180;16.420;2023-01-29T13:55:37;100691.00;;;2.97;56.00
48964;BME280;34776;48.180;16.420;2023-01-29T13:58:12;100684.81;;;3.05;56.00
48964;BME280;34776;48.180;16.420;2023-01-29T14:05:55;100688.97;;;3.37;55.95
48964;BME280;34776;48.180;16.420;2023-01-29T14:13:41;100683.03;;;3.14;55.91
48964;BME280;34776;48.180;16.420;2023-01-29T14:18:45;100679.66;;;2.93;56.17
48964;BME280;34776;48.180;16.420;2023-01-29T14:26:19;100676.34;;;2.57;56.86
48964;BME280;34776;48.180;16.420;2023-01-29T14:29:45;100684.28;;;2.48;56.48
48964;BME280;34776;48.180;16.420;2023-01-29T14:31:54;100674.66;;;2.41;57.24
48964;BME280;34776;48.180;16.420;2023-01-29T14:34:41;100667.72;;;2.34;57.03
48964;BME280;34776;48.180;16.420;2023-01-29T14:39:48;100680.84;;;2.26;57.67
48964;BME280;34776;48.180;16.420;2023-01-29T14:42:18;100684.31;;;2.27;58.07
48964;BME280;34776;48.180;16.420;2023-01-29T14:44:46;100674.75;;;2.19;58.05
48964;BME280;34776;48.180;16.420;2023-01-29T14:52:57;100680.06;;;1.92;58.69
48964;BME280;34776;48.180;16.420;2023-01-29T14:55:29;100678.34;;;1.88;58.90
48964;BME280;34776;48.180;16.420;2023-01-29T14:57:55;100683.56;;;1.88;58.89
48964;BME280;34776;48.180;16.420;2023-01-29T15:00:36;100687.06;;;1.80;59.14
48964;BME280;34776;48.180;16.420;2023-01-29T15:03:12;100684.47;;;1.77;59.10
48964;BME280;34776;48.180;16.420;2023-01-29T15:05:40;100684.44;;;1.76;59.58
48964;BME280;34776;48.180;16.420;2023-01-29T15:10:56;100690.59;;;1.58;60.03